sensor_id;sensor_type;location;lat;lon;timestamp;P1;durP1;ratioP1;P2;durP2;ratioP2
8086;SDS011;4086;54.412;9.980;2023-04-01T00:01:24;11.40;;;7.20;;
8086;SDS011;4086;54.412;9.980;2023-04-01T00:03:50;12.40;;;8.37;;
8086;SDS011;4086;54.412;9.980;2023-04-01T00:06:17;12.37;;;7.53;;
8086;SDS011;4086;54.412;9.980;2023-04-01T00:08:43;10.23;;;6.83;;
8086;SDS011;4086;54.412;9.980;2023-04-01T00:11:10;9.83;;;7.03;;
8086;SDS011;4086;54.412;9.980;2023-04-01T00:13:36;10.83;;;6.87;;
8086;SDS011;4086;54.412;9.980;2023-04-01T00:16:04;11.40;;;7.10;;
8086;SDS011;4086;54.412;9.980;2023-04-01T00:18:31;9.43;;;6.77;;
8086;SDS011;4086;54.412;9.980;2023-04-01T00:20:57;9.20;;;6.30;;
8086;SDS011;4086;54.412;9.980;2023-04-01T00:23:23;11.87;;;6.73;;
8086;SDS011;4086;54.412;9.980;2023-04-01T00:25:50;9.07;;;6.30;;
8086;SDS011;4086;54.412;9.980;2023-04-01T00:28:17;9.13;;;6.43;;
8086;SDS011;4086;54.412;9.980;2023-04-01T00:30:43;10.00;;;6.90;;
8086;SDS011;4086;54.412;9.980;2023-04-01T00:33:11;10.87;;;6.57;;
8086;SDS011;4086;54.412;9.980;2023-04-01T00:35:37;11.63;;;6.67;;
8086;SDS011;4086;54.412;9.980;2023-04-01T00:38:04;11.23;;;7.47;;
8086;SDS011;4086;54.412;9.980;2023-04-01T00:40:32;11.03;;;7.30;;
8086;SDS011;4086;54.412;9.980;2023-04-01T00:42:59;10.60;;;7.33;;
8086;SDS011;4086;54.412;9.980;2023-04-01T00:45:27;9.17;;;7.07;;
8086;SDS011;4086;54.412;9.980;2023-04-01T00:47:54;11.13;;;6.90;;
8086;SDS011;4086;54.412;9.980;2023-04-01T00:50:22;14.30;;;7.00;;
8086;SDS011;4086;54.412;9.980;2023-04-01T00:52:50;10.67;;;6.40;;
8086;SDS011;4086;54.412;9.980;2023-04-01T00:55:17;9.00;;;6.30;;
8086;SDS011;4086;54.412;9.980;2023-04-01T00:57:45;8.70;;;5.83;;
8086;SDS011;4086;54.412;9.980;2023-04-01T01:00:12;7.20;;;5.27;;
8086;SDS011;4086;54.412;9.980;2023-04-01T01:02:40;8.67;;;5.47;;
8086;SDS011;4086;54.412;9.980;2023-04-01T01:05:07;5.83;;;5.20;;
8086;SDS011;4086;54.412;9.980;2023-04-01T01:07:36;7.90;;;5.20;;
8086;SDS011;4086;54.412;9.980;2023-04-01T01:10:06;6.83;;;5.17;;
8086;SDS011;4086;54.412;9.980;2023-04-01T01:12:35;10.60;;;5.57;;
8086;SDS011;4086;54.412;9.980;2023-04-01T01:15:07;9.77;;;4.97;;
8086;SDS011;4086;54.412;9.980;2023-04-01T01:17:38;6.20;;;4.83;;
8086;SDS011;4086;54.412;9.980;2023-04-01T01:20:11;5.57;;;4.53;;
8086;SDS011;4086;54.412;9.980;2023-04-01T01:22:53;7.33;;;4.70;;
8086;SDS011;4086;54.412;9.980;2023-04-01T01:25:30;7.43;;;5.27;;
8086;SDS011;4086;54.412;9.980;2023-04-01T01:28:00;5.83;;;4.80;;
8086;SDS011;4086;54.412;9.980;2023-04-01T01:30:40;5.80;;;4.60;;
8086;SDS011;4086;54.412;9.980;2023-04-01T01:33:25;7.10;;;4.57;;
8086;SDS011;4086;54.412;9.980;2023-04-01T01:35:59;5.10;;;4.13;;
8086;SDS011;4086;54.412;9.980;2023-04-01T01:38:28;5.67;;;4.27;;
8086;SDS011;4086;54.412;9.980;2023-04-01T01:40:57;6.77;;;4.50;;
8086;SDS011;4086;54.412;9.980;2023-04-01T01:43:24;10.97;;;5.10;;
8086;SDS011;4086;54.412;9.980;2023-04-01T01:45:52;5.50;;;4.13;;
8086;SDS011;4086;54.412;9.980;2023-04-01T01:48:21;5.47;;;4.13;;
8086;SDS011;4086;54.412;9.980;2023-04-01T01:50:48;6.70;;;4.10;;
8086;SDS011;4086;54.412;9.980;2023-04-01T01:53:16;5.70;;;3.30;;
8086;SDS011;4086;54.412;9.980;2023-04-01T01:55:44;7.03;;;3.40;;
8086;SDS011;4086;54.412;9.980;2023-04-01T01:58:11;5.77;;;3.40;;
8086;SDS011;4086;54.412;9.980;2023-04-01T02:00:40;5.30;;;3.30;;
8086;SDS011;4086;54.412;9.980;2023-04-01T02:03:07;4.07;;;3.37;;
8086;SDS011;4086;54.412;9.980;2023-04-01T02:05:34;7.07;;;3.37;;
8086;SDS011;4086;54.412;9.980;2023-04-01T02:08:02;6.23;;;3.10;;
8086;SDS011;4086;54.412;9.980;2023-04-01T02:10:31;4.80;;;3.03;;
8086;SDS011;4086;54.412;9.980;2023-04-01T02:13:00;3.40;;;2.97;;
8086;SDS011;4086;54.412;9.980;2023-04-01T02:15:28;5.00;;;2.83;;
8086;SDS011;4086;54.412;9.980;2023-04-01T02:17:58;5.97;;;2.97;;
8086;SDS011;4086;54.412;9.980;2023-04-01T02:20:24;3.30;;;2.70;;
8086;SDS011;4086;54.412;9.980;2023-04-01T02:22:52;6.53;;;3.67;;
8086;SDS011;4086;54.412;9.980;2023-04-01T02:25:20;3.53;;;2.73;;
8086;SDS011;4086;54.412;9.980;2023-04-01T02:27:49;4.37;;;2.50;;
8086;SDS011;4086;54.412;9.980;2023-04-01T02:30:16;3.60;;;2.50;;
8086;SDS011;4086;54.412;9.980;2023-04-01T02:32:43;5.30;;;2.30;;
8086;SDS011;4086;54.412;9.980;2023-04-01T02:35:10;4.57;;;2.50;;
8086;SDS011;4086;54.412;9.980;2023-04-01T02:37:37;2.43;;;1.90;;
8086;SDS011;4086;54.412;9.980;2023-04-01T02:40:07;2.57;;;1.80;;
8086;SDS011;4086;54.412;9.980;2023-04-01T02:42:34;5.00;;;1.97;;
8086;SDS011;4086;54.412;9.980;2023-04-01T02:45:02;5.50;;;1.90;;
8086;SDS011;4086;54.412;9.980;2023-04-01T02:47:28;2.00;;;1.80;;
8086;SDS011;4086;54.412;9.980;2023-04-01T02:49:55;3.53;;;2.00;;
8086;SDS011;4086;54.412;9.980;2023-04-01T02:52:23;5.43;;;2.10;;
8086;SDS011;4086;54.412;9.980;2023-04-01T02:54:49;3.20;;;1.80;;
8086;SDS011;4086;54.412;9.980;2023-04-01T02:57:15;3.00;;;1.27;;
8086;SDS011;4086;54.412;9.980;2023-04-01T02:59:42;2.23;;;1.53;;
8086;SDS011;4086;54.412;9.980;2023-04-01T03:02:09;2.33;;;1.33;;
8086;SDS011;4086;54.412;9.980;2023-04-01T03:04:35;2.70;;;1.63;;
8086;SDS011;4086;54.412;9.980;2023-04-01T03:07:02;4.83;;;1.80;;
8086;SDS011;4086;54.412;9.980;2023-04-01T03:09:28;3.43;;;1.90;;
8086;SDS011;4086;54.412;9.980;2023-04-01T03:11:55;2.37;;;1.80;;
8086;SDS011;4086;54.412;9.980;2023-04-01T03:14:21;2.77;;;1.67;;
8086;SDS011;4086;54.412;9.980;2023-04-01T03:16:47;1.40;;;1.20;;
8086;SDS011;4086;54.412;9.980;2023-04-01T03:19:15;4.97;;;1.80;;
8086;SDS011;4086;54.412;9.980;2023-04-01T03:21:41;2.77;;;1.60;;
8086;SDS011;4086;54.412;9.980;2023-04-01T03:24:08;2.07;;;1.57;;
8086;SDS011;4086;54.412;9.980;2023-04-01T03:26:34;2.97;;;1.60;;
8086;SDS011;4086;54.412;9.980;2023-04-01T03:29:00;1.50;;;1.40;;
8086;SDS011;4086;54.412;9.980;2023-04-01T03:31:26;2.87;;;2.07;;
8086;SDS011;4086;54.412;9.980;2023-04-01T03:33:53;3.83;;;1.90;;
8086;SDS011;4086;54.412;9.980;2023-04-01T03:36:20;3.03;;;1.80;;
8086;SDS011;4086;54.412;9.980;2023-04-01T03:38:46;2.23;;;2.00;;
8086;SDS011;4086;54.412;9.980;2023-04-01T03:41:13;3.40;;;1.80;;
8086;SDS011;4086;54.412;9.980;2023-04-01T03:43:40;2.93;;;1.40;;
8086;SDS011;4086;54.412;9.980;2023-04-01T03:46:06;5.17;;;1.80;;
8086;SDS011;4086;54.412;9.980;2023-04-01T03:48:32;4.90;;;1.53;;
8086;SDS011;4086;54.412;9.980;2023-04-01T03:50:58;1.80;;;1.70;;
8086;SDS011;4086;54.412;9.980;2023-04-01T03:53:26;3.80;;;1.70;;
8086;SDS011;4086;54.412;9.980;2023-04-01T03:55:52;1.83;;;1.60;;
8086;SDS011;4086;54.412;9.980;2023-04-01T03:58:19;2.47;;;1.80;;
8086;SDS011;4086;54.412;9.980;2023-04-01T04:00:45;3.80;;;2.07;;
8086;SDS011;4086;54.412;9.980;2023-04-01T04:03:12;5.50;;;2.30;;
8086;SDS011;4086;54.412;9.980;2023-04-01T04:05:45;3.00;;;2.13;;
8086;SDS011;4086;54.412;9.980;2023-04-01T04:08:11;2.70;;;1.80;;
8086;SDS011;4086;54.412;9.980;2023-04-01T04:10:39;2.40;;;1.50;;
8086;SDS011;4086;54.412;9.980;2023-04-01T04:13:06;2.73;;;1.70;;
8086;SDS011;4086;54.412;9.980;2023-04-01T04:15:32;2.57;;;1.63;;
8086;SDS011;4086;54.412;9.980;2023-04-01T04:17:59;5.40;;;1.77;;
8086;SDS011;4086;54.412;9.980;2023-04-01T04:20:25;2.07;;;1.40;;
8086;SDS011;4086;54.412;9.980;2023-04-01T04:22:51;1.80;;;1.20;;
8086;SDS011;4086;54.412;9.980;2023-04-01T04:25:17;1.33;;;1.23;;
8086;SDS011;4086;54.412;9.980;2023-04-01T04:27:45;3.43;;;1.30;;
8086;SDS011;4086;54.412;9.980;2023-04-01T04:30:11;1.53;;;1.30;;
8086;SDS011;4086;54.412;9.980;2023-04-01T04:32:38;4.27;;;1.30;;
8086;SDS011;4086;54.412;9.980;2023-04-01T04:35:05;2.10;;;1.40;;
8086;SDS011;4086;54.412;9.980;2023-04-01T04:37:32;2.43;;;1.50;;
8086;SDS011;4086;54.412;9.980;2023-04-01T04:39:58;2.17;;;1.43;;
8086;SDS011;4086;54.412;9.980;2023-04-01T04:42:24;1.27;;;1.17;;
8086;SDS011;4086;54.412;9.980;2023-04-01T04:44:52;2.47;;;1.43;;
8086;SDS011;4086;54.412;9.980;2023-04-01T04:47:18;4.20;;;1.30;;
8086;SDS011;4086;54.412;9.980;2023-04-01T04:49:44;1.90;;;1.37;;
8086;SDS011;4086;54.412;9.980;2023-04-01T04:52:11;1.87;;;1.10;;
8086;SDS011;4086;54.412;9.980;2023-04-01T04:54:37;4.60;;;2.10;;
8086;SDS011;4086;54.412;9.980;2023-04-01T04:57:03;2.17;;;1.50;;
8086;SDS011;4086;54.412;9.980;2023-04-01T04:59:30;2.17;;;1.90;;
8086;SDS011;4086;54.412;9.980;2023-04-01T05:01:58;1.60;;;1.50;;
8086;SDS011;4086;54.412;9.980;2023-04-01T05:04:24;2.60;;;1.90;;
8086;SDS011;4086;54.412;9.980;2023-04-01T05:06:50;2.97;;;2.27;;
8086;SDS011;4086;54.412;9.980;2023-04-01T05:09:16;2.10;;;1.90;;
8086;SDS011;4086;54.412;9.980;2023-04-01T05:11:43;3.17;;;1.60;;
8086;SDS011;4086;54.412;9.980;2023-04-01T05:14:11;5.90;;;2.30;;
8086;SDS011;4086;54.412;9.980;2023-04-01T05:16:38;3.10;;;2.40;;
8086;SDS011;4086;54.412;9.980;2023-04-01T05:19:05;2.00;;;1.80;;
8086;SDS011;4086;54.412;9.980;2023-04-01T05:21:32;4.70;;;2.50;;
8086;SDS011;4086;54.412;9.980;2023-04-01T05:23:58;3.73;;;1.90;;
8086;SDS011;4086;54.412;9.980;2023-04-01T05:26:24;6.37;;;2.40;;
8086;SDS011;4086;54.412;9.980;2023-04-01T05:28:50;2.23;;;1.63;;
8086;SDS011;4086;54.412;9.980;2023-04-01T05:31:16;2.10;;;1.83;;
8086;SDS011;4086;54.412;9.980;2023-04-01T05:33:43;4.10;;;2.20;;
8086;SDS011;4086;54.412;9.980;2023-04-01T05:36:11;2.43;;;1.90;;
8086;SDS011;4086;54.412;9.980;2023-04-01T05:38:38;2.10;;;1.90;;
8086;SDS011;4086;54.412;9.980;2023-04-01T05:41:05;3.50;;;2.00;;
8086;SDS011;4086;54.412;9.980;2023-04-01T05:43:31;4.43;;;2.07;;
8086;SDS011;4086;54.412;9.980;2023-04-01T05:45:57;4.23;;;2.03;;
8086;SDS011;4086;54.412;9.980;2023-04-01T05:48:24;3.57;;;2.10;;
8086;SDS011;4086;54.412;9.980;2023-04-01T05:50:50;3.33;;;1.80;;
8086;SDS011;4086;54.412;9.980;2023-04-01T05:53:18;2.20;;;2.03;;
8086;SDS011;4086;54.412;9.980;2023-04-01T05:55:44;4.03;;;2.00;;
8086;SDS011;4086;54.412;9.980;2023-04-01T05:58:10;1.83;;;1.40;;
8086;SDS011;4086;54.412;9.980;2023-04-01T06:00:37;2.90;;;1.77;;
8086;SDS011;4086;54.412;9.980;2023-04-01T06:03:03;1.93;;;1.67;;
8086;SDS011;4086;54.412;9.980;2023-04-01T06:05:30;2.30;;;1.87;;
8086;SDS011;4086;54.412;9.980;2023-04-01T06:08:05;3.30;;;1.80;;
8086;SDS011;4086;54.412;9.980;2023-04-01T06:10:36;1.63;;;1.53;;
8086;SDS011;4086;54.412;9.980;2023-04-01T06:13:04;3.23;;;1.90;;
8086;SDS011;4086;54.412;9.980;2023-04-01T06:15:35;3.50;;;1.87;;
8086;SDS011;4086;54.412;9.980;2023-04-01T06:18:31;2.70;;;1.80;;
8086;SDS011;4086;54.412;9.980;2023-04-01T06:21:03;2.50;;;1.60;;
8086;SDS011;4086;54.412;9.980;2023-04-01T06:23:40;2.23;;;1.70;;
8086;SDS011;4086;54.412;9.980;2023-04-01T06:26:14;3.37;;;1.90;;
8086;SDS011;4086;54.412;9.980;2023-04-01T06:28:48;3.30;;;2.20;;
8086;SDS011;4086;54.412;9.980;2023-04-01T06:31:23;5.03;;;2.27;;
8086;SDS011;4086;54.412;9.980;2023-04-01T06:33:55;4.73;;;2.53;;
8086;SDS011;4086;54.412;9.980;2023-04-01T06:36:31;4.67;;;2.13;;
8086;SDS011;4086;54.412;9.980;2023-04-01T06:39:06;6.33;;;3.00;;
8086;SDS011;4086;54.412;9.980;2023-04-01T06:44:26;4.77;;;2.30;;
8086;SDS011;4086;54.412;9.980;2023-04-01T06:46:56;3.13;;;2.07;;
8086;SDS011;4086;54.412;9.980;2023-04-01T06:49:33;4.07;;;2.10;;
8086;SDS011;4086;54.412;9.980;2023-04-01T06:52:02;3.60;;;2.13;;
8086;SDS011;4086;54.412;9.980;2023-04-01T06:54:32;3.90;;;2.30;;
8086;SDS011;4086;54.412;9.980;2023-04-01T06:57:00;2.33;;;2.07;;
8086;SDS011;4086;54.412;9.980;2023-04-01T06:59:30;4.73;;;2.40;;
8086;SDS011;4086;54.412;9.980;2023-04-01T07:01:58;6.40;;;2.43;;
8086;SDS011;4086;54.412;9.980;2023-04-01T07:04:25;4.60;;;2.47;;
8086;SDS011;4086;54.412;9.980;2023-04-01T07:06:53;5.17;;;2.40;;
8086;SDS011;4086;54.412;9.980;2023-04-01T07:09:20;3.97;;;2.50;;
8086;SDS011;4086;54.412;9.980;2023-04-01T07:11:48;6.97;;;2.60;;
8086;SDS011;4086;54.412;9.980;2023-04-01T07:14:17;5.37;;;2.50;;
8086;SDS011;4086;54.412;9.980;2023-04-01T07:16:47;3.53;;;2.40;;
8086;SDS011;4086;54.412;9.980;2023-04-01T07:19:16;3.03;;;2.50;;
8086;SDS011;4086;54.412;9.980;2023-04-01T07:21:45;6.30;;;2.90;;
8086;SDS011;4086;54.412;9.980;2023-04-01T07:24:14;5.03;;;2.60;;
8086;SDS011;4086;54.412;9.980;2023-04-01T07:26:42;4.83;;;2.73;;
8086;SDS011;4086;54.412;9.980;2023-04-01T07:29:09;5.50;;;2.60;;
8086;SDS011;4086;54.412;9.980;2023-04-01T07:31:45;4.87;;;2.57;;
8086;SDS011;4086;54.412;9.980;2023-04-01T07:34:18;2.60;;;2.40;;
8086;SDS011;4086;54.412;9.980;2023-04-01T07:36:46;5.93;;;2.70;;
8086;SDS011;4086;54.412;9.980;2023-04-01T07:39:18;7.40;;;2.67;;
8086;SDS011;4086;54.412;9.980;2023-04-01T07:41:51;2.90;;;2.20;;
8086;SDS011;4086;54.412;9.980;2023-04-01T07:44:20;4.30;;;2.90;;
8086;SDS011;4086;54.412;9.980;2023-04-01T07:46:55;9.00;;;3.87;;
8086;SDS011;4086;54.412;9.980;2023-04-01T07:49:27;3.50;;;2.93;;
8086;SDS011;4086;54.412;9.980;2023-04-01T07:51:56;5.10;;;3.30;;
8086;SDS011;4086;54.412;9.980;2023-04-01T07:54:26;8.50;;;3.00;;
8086;SDS011;4086;54.412;9.980;2023-04-01T07:56:55;3.73;;;2.70;;
8086;SDS011;4086;54.412;9.980;2023-04-01T07:59:24;5.97;;;3.43;;
8086;SDS011;4086;54.412;9.980;2023-04-01T08:01:57;9.50;;;3.33;;
8086;SDS011;4086;54.412;9.980;2023-04-01T08:04:38;5.10;;;3.47;;
8086;SDS011;4086;54.412;9.980;2023-04-01T08:07:08;8.17;;;3.00;;
8086;SDS011;4086;54.412;9.980;2023-04-01T08:09:37;8.67;;;3.60;;
8086;SDS011;4086;54.412;9.980;2023-04-01T08:12:08;8.33;;;4.13;;
8086;SDS011;4086;54.412;9.980;2023-04-01T08:14:40;5.60;;;3.40;;
8086;SDS011;4086;54.412;9.980;2023-04-01T08:17:08;4.40;;;3.43;;
8086;SDS011;4086;54.412;9.980;2023-04-01T08:19:44;7.53;;;3.63;;
8086;SDS011;4086;54.412;9.980;2023-04-01T08:22:15;9.07;;;3.60;;
8086;SDS011;4086;54.412;9.980;2023-04-01T08:24:44;7.73;;;4.10;;
8086;SDS011;4086;54.412;9.980;2023-04-01T08:27:12;7.87;;;4.10;;
8086;SDS011;4086;54.412;9.980;2023-04-01T08:29:42;8.30;;;3.90;;
8086;SDS011;4086;54.412;9.980;2023-04-01T08:32:12;7.90;;;3.90;;
8086;SDS011;4086;54.412;9.980;2023-04-01T08:34:43;7.53;;;4.07;;
8086;SDS011;4086;54.412;9.980;2023-04-01T08:37:11;6.47;;;3.60;;
8086;SDS011;4086;54.412;9.980;2023-04-01T08:39:43;7.63;;;4.23;;
8086;SDS011;4086;54.412;9.980;2023-04-01T08:42:18;10.47;;;4.43;;
8086;SDS011;4086;54.412;9.980;2023-04-01T08:44:58;7.10;;;4.27;;
8086;SDS011;4086;54.412;9.980;2023-04-01T08:47:32;9.47;;;4.50;;
8086;SDS011;4086;54.412;9.980;2023-04-01T08:50:23;9.33;;;5.00;;
8086;SDS011;4086;54.412;9.980;2023-04-01T08:52:53;8.00;;;4.67;;
8086;SDS011;4086;54.412;9.980;2023-04-01T08:55:27;9.27;;;5.00;;
8086;SDS011;4086;54.412;9.980;2023-04-01T08:57:56;9.07;;;5.07;;
8086;SDS011;4086;54.412;9.980;2023-04-01T09:00:29;10.90;;;5.40;;
8086;SDS011;4086;54.412;9.980;2023-04-01T09:03:04;11.37;;;5.33;;
8086;SDS011;4086;54.412;9.980;2023-04-01T09:05:39;8.50;;;4.90;;
8086;SDS011;4086;54.412;9.980;2023-04-01T09:08:12;7.90;;;4.63;;
8086;SDS011;4086;54.412;9.980;2023-04-01T09:10:49;8.40;;;5.33;;
8086;SDS011;4086;54.412;9.980;2023-04-01T09:16:12;9.83;;;5.17;;
8086;SDS011;4086;54.412;9.980;2023-04-01T09:18:49;7.40;;;4.77;;
8086;SDS011;4086;54.412;9.980;2023-04-01T09:21:25;8.33;;;4.60;;
8086;SDS011;4086;54.412;9.980;2023-04-01T09:24:02;9.40;;;5.10;;
8086;SDS011;4086;54.412;9.980;2023-04-01T09:29:24;9.57;;;5.40;;
8086;SDS011;4086;54.412;9.980;2023-04-01T09:32:00;7.70;;;4.77;;
8086;SDS011;4086;54.412;9.980;2023-04-01T09:34:41;8.20;;;4.90;;
8086;SDS011;4086;54.412;9.980;2023-04-01T09:37:19;9.23;;;5.10;;
8086;SDS011;4086;54.412;9.980;2023-04-01T09:39:48;6.97;;;5.03;;
8086;SDS011;4086;54.412;9.980;2023-04-01T09:42:29;11.20;;;5.50;;
8086;SDS011;4086;54.412;9.980;2023-04-01T09:45:02;7.80;;;5.10;;
8086;SDS011;4086;54.412;9.980;2023-04-01T09:47:36;13.40;;;5.27;;
8086;SDS011;4086;54.412;9.980;2023-04-01T09:50:20;6.63;;;4.93;;
8086;SDS011;4086;54.412;9.980;2023-04-01T09:52:55;9.87;;;5.23;;
8086;SDS011;4086;54.412;9.980;2023-04-01T10:01:09;11.30;;;5.47;;
8086;SDS011;4086;54.412;9.980;2023-04-01T10:03:46;11.53;;;5.63;;
8086;SDS011;4086;54.412;9.980;2023-04-01T10:06:30;10.37;;;5.87;;
8086;SDS011;4086;54.412;9.980;2023-04-01T10:09:09;8.57;;;5.10;;
8086;SDS011;4086;54.412;9.980;2023-04-01T10:11:52;8.93;;;5.40;;
8086;SDS011;4086;54.412;9.980;2023-04-01T10:14:27;9.80;;;5.23;;
8086;SDS011;4086;54.412;9.980;2023-04-01T10:20:00;8.73;;;5.43;;
8086;SDS011;4086;54.412;9.980;2023-04-01T10:25:20;7.93;;;5.40;;
8086;SDS011;4086;54.412;9.980;2023-04-01T10:28:06;9.43;;;5.40;;
8086;SDS011;4086;54.412;9.980;2023-04-01T10:33:38;12.33;;;6.03;;
8086;SDS011;4086;54.412;9.980;2023-04-01T10:36:22;12.40;;;5.03;;
8086;SDS011;4086;54.412;9.980;2023-04-01T10:39:04;12.87;;;5.70;;
8086;SDS011;4086;54.412;9.980;2023-04-01T10:47:39;7.63;;;5.33;;
8086;SDS011;4086;54.412;9.980;2023-04-01T10:50:15;10.77;;;5.40;;
8086;SDS011;4086;54.412;9.980;2023-04-01T10:52:57;9.97;;;4.93;;
8086;SDS011;4086;54.412;9.980;2023-04-01T10:58:21;9.23;;;4.20;;
8086;SDS011;4086;54.412;9.980;2023-04-01T11:01:02;7.77;;;5.17;;
8086;SDS011;4086;54.412;9.980;2023-04-01T11:06:32;9.70;;;4.73;;
8086;SDS011;4086;54.412;9.980;2023-04-01T11:09:26;8.10;;;4.70;;
8086;SDS011;4086;54.412;9.980;2023-04-01T11:14:56;8.80;;;4.40;;
8086;SDS011;4086;54.412;9.980;2023-04-01T11:20:18;7.90;;;4.30;;
8086;SDS011;4086;54.412;9.980;2023-04-01T11:22:53;8.03;;;4.53;;
8086;SDS011;4086;54.412;9.980;2023-04-01T11:28:16;8.10;;;4.57;;
8086;SDS011;4086;54.412;9.980;2023-04-01T11:30:53;7.17;;;4.70;;
8086;SDS011;4086;54.412;9.980;2023-04-01T11:33:25;7.33;;;4.63;;
8086;SDS011;4086;54.412;9.980;2023-04-01T11:38:38;9.43;;;3.93;;
8086;SDS011;4086;54.412;9.980;2023-04-01T11:41:13;9.70;;;4.27;;
8086;SDS011;4086;54.412;9.980;2023-04-01T11:43:44;5.50;;;3.47;;
8086;SDS011;4086;54.412;9.980;2023-04-01T11:46:15;9.93;;;4.03;;
8086;SDS011;4086;54.412;9.980;2023-04-01T11:48:46;6.43;;;3.33;;
8086;SDS011;4086;54.412;9.980;2023-04-01T11:54:05;5.97;;;3.40;;
8086;SDS011;4086;54.412;9.980;2023-04-01T12:02:05;5.83;;;4.07;;
8086;SDS011;4086;54.412;9.980;2023-04-01T12:07:21;6.50;;;3.23;;
8086;SDS011;4086;54.412;9.980;2023-04-01T12:09:55;7.20;;;3.60;;
8086;SDS011;4086;54.412;9.980;2023-04-01T12:12:24;5.63;;;3.60;;
8086;SDS011;4086;54.412;9.980;2023-04-01T12:14:54;5.97;;;3.27;;
8086;SDS011;4086;54.412;9.980;2023-04-01T12:17:27;5.50;;;3.50;;
8086;SDS011;4086;54.412;9.980;2023-04-01T12:19:56;4.70;;;3.03;;
8086;SDS011;4086;54.412;9.980;2023-04-01T12:22:30;6.60;;;4.10;;
8086;SDS011;4086;54.412;9.980;2023-04-01T12:25:06;7.30;;;3.43;;
8086;SDS011;4086;54.412;9.980;2023-04-01T12:27:44;5.40;;;3.37;;
8086;SDS011;4086;54.412;9.980;2023-04-01T12:33:04;5.63;;;2.67;;
8086;SDS011;4086;54.412;9.980;2023-04-01T12:35:36;4.43;;;2.80;;
8086;SDS011;4086;54.412;9.980;2023-04-01T12:38:14;7.33;;;2.87;;
8086;SDS011;4086;54.412;9.980;2023-04-01T12:40:47;8.63;;;3.03;;
8086;SDS011;4086;54.412;9.980;2023-04-01T12:43:23;5.63;;;2.97;;
8086;SDS011;4086;54.412;9.980;2023-04-01T12:45:54;5.27;;;2.43;;
8086;SDS011;4086;54.412;9.980;2023-04-01T12:48:33;4.20;;;2.20;;
8086;SDS011;4086;54.412;9.980;2023-04-01T12:51:11;4.47;;;2.40;;
8086;SDS011;4086;54.412;9.980;2023-04-01T12:54:02;5.10;;;2.60;;
8086;SDS011;4086;54.412;9.980;2023-04-01T12:56:39;6.60;;;3.00;;
8086;SDS011;4086;54.412;9.980;2023-04-01T13:01:59;4.13;;;2.30;;
8086;SDS011;4086;54.412;9.980;2023-04-01T13:04:31;5.53;;;2.70;;
8086;SDS011;4086;54.412;9.980;2023-04-01T13:07:10;4.63;;;2.63;;
8086;SDS011;4086;54.412;9.980;2023-04-01T13:09:40;5.93;;;2.70;;
8086;SDS011;4086;54.412;9.980;2023-04-01T13:12:21;9.03;;;2.73;;
8086;SDS011;4086;54.412;9.980;2023-04-01T13:14:56;7.90;;;2.60;;
8086;SDS011;4086;54.412;9.980;2023-04-01T13:17:26;7.23;;;3.07;;
8086;SDS011;4086;54.412;9.980;2023-04-01T13:19:56;4.00;;;2.53;;
8086;SDS011;4086;54.412;9.980;2023-04-01T13:22:26;4.73;;;2.70;;
8086;SDS011;4086;54.412;9.980;2023-04-01T13:24:56;3.07;;;2.47;;
8086;SDS011;4086;54.412;9.980;2023-04-01T13:27:28;7.77;;;2.80;;
8086;SDS011;4086;54.412;9.980;2023-04-01T13:29:59;7.70;;;2.60;;
8086;SDS011;4086;54.412;9.980;2023-04-01T13:32:29;5.70;;;2.60;;
8086;SDS011;4086;54.412;9.980;2023-04-01T13:35:01;6.03;;;3.00;;
8086;SDS011;4086;54.412;9.980;2023-04-01T13:37:33;2.97;;;2.23;;
8086;SDS011;4086;54.412;9.980;2023-04-01T13:40:12;5.57;;;2.70;;
8086;SDS011;4086;54.412;9.980;2023-04-01T13:42:44;5.93;;;2.80;;
8086;SDS011;4086;54.412;9.980;2023-04-01T13:45:12;5.87;;;2.87;;
8086;SDS011;4086;54.412;9.980;2023-04-01T13:47:59;5.03;;;2.43;;
8086;SDS011;4086;54.412;9.980;2023-04-01T13:50:37;6.73;;;2.70;;
8086;SDS011;4086;54.412;9.980;2023-04-01T13:53:14;3.40;;;2.30;;
8086;SDS011;4086;54.412;9.980;2023-04-01T13:55:53;5.00;;;2.30;;
8086;SDS011;4086;54.412;9.980;2023-04-01T13:58:27;5.07;;;2.20;;
8086;SDS011;4086;54.412;9.980;2023-04-01T14:00:54;5.27;;;2.67;;
8086;SDS011;4086;54.412;9.980;2023-04-01T14:03:30;5.83;;;2.60;;
8086;SDS011;4086;54.412;9.980;2023-04-01T14:06:01;5.63;;;2.50;;
8086;SDS011;4086;54.412;9.980;2023-04-01T14:08:34;6.93;;;2.57;;
8086;SDS011;4086;54.412;9.980;2023-04-01T14:11:06;5.27;;;2.40;;
8086;SDS011;4086;54.412;9.980;2023-04-01T14:13:40;5.53;;;2.20;;
8086;SDS011;4086;54.412;9.980;2023-04-01T14:16:14;4.67;;;2.37;;
8086;SDS011;4086;54.412;9.980;2023-04-01T14:18:56;6.53;;;2.57;;
8086;SDS011;4086;54.412;9.980;2023-04-01T14:21:28;7.00;;;2.50;;
8086;SDS011;4086;54.412;9.980;2023-04-01T14:29:26;3.77;;;2.30;;
8086;SDS011;4086;54.412;9.980;2023-04-01T14:31:59;4.63;;;2.00;;
8086;SDS011;4086;54.412;9.980;2023-04-01T14:34:32;7.37;;;1.93;;
8086;SDS011;4086;54.412;9.980;2023-04-01T14:37:01;3.83;;;2.13;;
8086;SDS011;4086;54.412;9.980;2023-04-01T14:39:38;4.50;;;2.20;;
8086;SDS011;4086;54.412;9.980;2023-04-01T14:42:14;4.57;;;2.33;;
8086;SDS011;4086;54.412;9.980;2023-04-01T14:47:41;8.03;;;2.40;;
8086;SDS011;4086;54.412;9.980;2023-04-01T14:50:10;4.10;;;1.83;;
8086;SDS011;4086;54.412;9.980;2023-04-01T14:52:38;4.40;;;1.70;;
8086;SDS011;4086;54.412;9.980;2023-04-01T14:55:15;5.67;;;2.03;;
8086;SDS011;4086;54.412;9.980;2023-04-01T14:57:45;6.20;;;2.27;;
8086;SDS011;4086;54.412;9.980;2023-04-01T15:00:23;3.77;;;2.00;;
8086;SDS011;4086;54.412;9.980;2023-04-01T15:02:53;4.37;;;2.00;;
8086;SDS011;4086;54.412;9.980;2023-04-01T15:05:27;3.33;;;1.80;;
8086;SDS011;4086;54.412;9.980;2023-04-01T15:08:00;5.53;;;1.90;;
8086;SDS011;4086;54.412;9.980;2023-04-01T15:10:46;5.93;;;1.60;;
8086;SDS011;4086;54.412;9.980;2023-04-01T15:13:16;3.73;;;2.07;;
8086;SDS011;4086;54.412;9.980;2023-04-01T15:15:49;5.40;;;2.07;;
8086;SDS011;4086;54.412;9.980;2023-04-01T15:18:21;4.70;;;1.97;;
8086;SDS011;4086;54.412;9.980;2023-04-01T15:21:03;7.33;;;2.10;;
8086;SDS011;4086;54.412;9.980;2023-04-01T15:23:34;5.70;;;1.83;;
8086;SDS011;4086;54.412;9.980;2023-04-01T15:26:13;3.53;;;1.63;;
8086;SDS011;4086;54.412;9.980;2023-04-01T15:28:43;5.13;;;1.60;;
8086;SDS011;4086;54.412;9.980;2023-04-01T15:31:13;2.80;;;1.70;;
8086;SDS011;4086;54.412;9.980;2023-04-01T15:36:32;4.13;;;1.30;;
8086;SDS011;4086;54.412;9.980;2023-04-01T15:39:04;3.13;;;1.50;;
8086;SDS011;4086;54.412;9.980;2023-04-01T15:41:39;3.67;;;1.60;;
8086;SDS011;4086;54.412;9.980;2023-04-01T15:46:48;3.40;;;1.60;;
8086;SDS011;4086;54.412;9.980;2023-04-01T15:49:19;2.50;;;1.80;;
8086;SDS011;4086;54.412;9.980;2023-04-01T15:51:52;3.93;;;1.70;;
8086;SDS011;4086;54.412;9.980;2023-04-01T15:54:23;2.47;;;1.60;;
8086;SDS011;4086;54.412;9.980;2023-04-01T15:56:54;2.00;;;1.43;;
8086;SDS011;4086;54.412;9.980;2023-04-01T15:59:27;3.83;;;1.67;;
8086;SDS011;4086;54.412;9.980;2023-04-01T16:01:57;4.07;;;1.53;;
8086;SDS011;4086;54.412;9.980;2023-04-01T16:04:28;5.03;;;1.90;;
8086;SDS011;4086;54.412;9.980;2023-04-01T16:07:02;2.60;;;1.60;;
8086;SDS011;4086;54.412;9.980;2023-04-01T16:09:33;3.17;;;1.33;;
8086;SDS011;4086;54.412;9.980;2023-04-01T16:12:03;3.03;;;1.73;;
8086;SDS011;4086;54.412;9.980;2023-04-01T16:14:33;4.23;;;1.57;;
8086;SDS011;4086;54.412;9.980;2023-04-01T16:17:17;2.40;;;1.30;;
8086;SDS011;4086;54.412;9.980;2023-04-01T16:19:51;3.27;;;1.63;;
8086;SDS011;4086;54.412;9.980;2023-04-01T16:22:20;3.53;;;1.53;;
8086;SDS011;4086;54.412;9.980;2023-04-01T16:24:48;2.53;;;1.57;;
8086;SDS011;4086;54.412;9.980;2023-04-01T16:27:18;3.27;;;1.50;;
8086;SDS011;4086;54.412;9.980;2023-04-01T16:29:46;3.10;;;1.50;;
8086;SDS011;4086;54.412;9.980;2023-04-01T16:32:16;2.63;;;1.20;;
8086;SDS011;4086;54.412;9.980;2023-04-01T16:34:45;4.30;;;1.77;;
8086;SDS011;4086;54.412;9.980;2023-04-01T16:37:15;2.80;;;1.40;;
8086;SDS011;4086;54.412;9.980;2023-04-01T16:39:44;3.80;;;1.37;;
8086;SDS011;4086;54.412;9.980;2023-04-01T16:42:26;4.70;;;1.30;;
8086;SDS011;4086;54.412;9.980;2023-04-01T16:44:54;4.70;;;1.33;;
8086;SDS011;4086;54.412;9.980;2023-04-01T16:47:21;4.57;;;1.47;;
8086;SDS011;4086;54.412;9.980;2023-04-01T16:49:54;4.93;;;1.87;;
8086;SDS011;4086;54.412;9.980;2023-04-01T16:52:43;2.83;;;1.37;;
8086;SDS011;4086;54.412;9.980;2023-04-01T16:55:17;3.27;;;1.13;;